Flight Track Log - Related Links

Times and Time Zones

All times are in EDT time to prevent confusion due to time zone crossing. See the JBU56 flight status page for this flight to view local times or setup timezone preferences in your user account.

Time Position Orientation Groundspeed Altitude Reporting Facility
EDT Latitude Longitude Course Direction KTS MPH feet Rate Location/Type
Sat 10:09:28 AM 40.6333 -73.8667 18° North 187 215 2,600  Level New York TRACON
Sat 10:10:00 AM 40.9108 -73.6196 21° North  Level FlightAware Approximate
Sat 10:10:28 AM 40.5833 -73.8667 180° South 273 314 4,800  Level New York TRACON
Sat 10:11:00 AM 41.0094 -73.5703 21° North  Level FlightAware Approximate
Sat 10:11:28 AM 40.5833 -73.7667 90° East 291 335 5,300  Level New York TRACON
Sat 10:12:00 AM 41.1039 -73.5086 27° Northeast  Level FlightAware Approximate
Sat 10:12:28 AM 40.6000 -73.6667 78° East 323 372 8,000  Level New York TRACON
Sat 10:13:00 AM 41.1996 -73.4502 21° North  Level FlightAware Approximate
Sat 10:14:00 AM 41.2945 -73.3952 18° North  Level FlightAware Approximate
Sat 10:14:36 AM 40.7636 -73.5061 37° Northeast 375 432 11,800  Level Boston Center
Sat 10:15:36 AM 40.8764 -73.4778 11° North 381 438 13,100 1,750 Climbing Boston Center
Sat 10:16:36 AM 40.9914 -73.4464 12° North 392 451 15,300 2,050 Climbing Boston Center
Sat 10:17:36 AM 41.1103 -73.4181 10° North 418 481 17,200 1,750 Climbing Boston Center
Sat 10:18:36 AM 41.2231 -73.3867 12° North 451 519 18,800 1,800 Climbing Boston Center
Sat 10:19:36 AM 41.3653 -73.3444 13° North 457 526 20,800 1,100 Climbing Boston Center
Sat 10:20:36 AM 41.4928 -73.2881 18° North 469 540 21,000 100 Climbing Boston Center
Sat 10:21:36 AM 41.5808 -73.1894 40° Northeast 455 524 21,000  Level Boston Center
Sat 10:22:36 AM 41.6981 -73.1381 18° North 455 524 21,000  Level Boston Center
Sat 10:23:36 AM 41.8231 -73.1422 359° North 438 504 21,000  Level Boston Center
Sat 10:24:36 AM 41.9542 -73.1436 360° North 450 518 21,000  Level Boston Center
Sat 10:25:36 AM 42.0856 -73.1450 360° North 462 532 21,000  Level Boston Center
Sat 10:26:36 AM 42.2211 -73.1467 359° North 474 545 21,000  Level Boston Center
Sat 10:27:36 AM 42.3753 -73.1397 North 487 560 21,000  Level Boston Center
Sat 10:28:36 AM 42.5108 -73.1442 359° North 492 566 21,000  Level Boston Center
Sat 10:29:36 AM 42.6358 -73.1483 359° North 492 566 21,000  Level Boston Center
Sat 10:30:36 AM 42.7692 -73.1472 360° North 492 566 21,000  Level Boston Center
Sat 10:31:36 AM 42.9047 -73.1486 360° North 492 566 21,000  Level Boston Center
Sat 10:32:36 AM 43.0422 -73.1475 360° North 492 566 21,000  Level Boston Center
Sat 10:33:36 AM 43.1775 -73.1492 359° North 492 566 21,000  Level Boston Center
Sat 10:34:36 AM 43.3153 -73.1506 360° North 492 566 21,000 -600 Level Boston Center
Sat 10:35:36 AM 43.4486 -73.1464 North 486 559 19,800 -1,750 Descending Boston Center
Sat 10:36:36 AM 43.5778 -73.1481 359° North 471 542 17,500 -2,250 Descending Boston Center
Sat 10:37:36 AM 43.7028 -73.1494 360° North 454 522 15,300 -2,100 Descending Boston Center
Sat 10:38:36 AM 43.8258 -73.1508 360° North 446 513 13,300 -1,750 Descending Boston Center
Sat 10:39:36 AM 43.9342 -73.1522 359° North 407 468 11,800 -1,250 Descending Boston Center
Sat 10:40:36 AM 44.0319 -73.1506 North 362 417 10,800 -1,350 Descending Boston Center
Sat 10:41:36 AM 44.1133 -73.1572 357° North 308 354 9,100 -1,900 Descending Boston Center
Sat 10:42:36 AM 44.1881 -73.1725 352° North 282 325 7,000 -2,000 Descending Boston Center
Sat 10:43:36 AM 44.2633 -73.1531 10° North 257 296 5,100 -1,450 Descending Boston Center
Sat 10:44:36 AM 44.3178 -73.0986 36° Northeast 240 276 4,100 -550 Descending Boston Center
Sat 10:45:36 AM 44.3661 -73.0442 39° Northeast 229 264 4,000 -591 Descending Boston Center
Sat 10:46:48 AM 44.4158 -73.0592 348° North 162 186 2,800 -1,273 Descending Boston Center
Sat 10:47:48 AM 44.4447 -73.1089 309° West 140 161 1,200 -1,200 Descending Boston Center
Sat 10:48:48 AM 44.4656 -73.1439 310° West 140 161 400 -400 Descending Boston Center
Sat 10:49:48 AM 44.4800 -73.1675 311° West 125 144 400  Level Boston Center
Sat 10:50:48 AM 44.4778 -73.1644 136° Southeast 81 93 400  Level Boston Center

Login

Don't have an account? Register now (free) for customized features, flight alerts, and more!